createdAt,value
2023-04-19T00:00:08.252Z,61.83
2023-04-19T00:02:36.205Z,55.50
2023-04-19T00:05:03.967Z,51.08
2023-04-19T00:07:31.189Z,55.85
2023-04-19T00:09:58.364Z,66.53
2023-04-19T00:12:25.699Z,71.68
2023-04-19T00:14:52.817Z,59.92
2023-04-19T00:17:20.148Z,68.00
2023-04-19T00:19:47.771Z,65.28
2023-04-19T00:22:14.941Z,62.80
2023-04-19T00:24:42.335Z,63.63
2023-04-19T00:27:09.523Z,69.95
2023-04-19T00:29:36.704Z,82.63
2023-04-19T00:32:05.902Z,81.60
2023-04-19T00:34:33.092Z,76.70
2023-04-19T00:37:00.441Z,88.93
2023-04-19T00:39:27.602Z,94.30
2023-04-19T00:41:55.484Z,78.85
2023-04-19T00:44:22.826Z,80.80
2023-04-19T00:46:50.433Z,99.05
2023-04-19T00:49:18.595Z,102.78
2023-04-19T00:51:45.873Z,89.53
2023-04-19T00:54:13.853Z,81.45
2023-04-19T00:56:41.415Z,93.57
2023-04-19T00:59:08.658Z,94.65
2023-04-19T01:01:36.031Z,82.88
2023-04-19T01:04:03.455Z,84.15
2023-04-19T01:06:31.607Z,95.97
2023-04-19T01:08:59.011Z,84.97
2023-04-19T01:11:26.472Z,92.65
2023-04-19T01:13:53.602Z,80.63
2023-04-19T01:16:20.919Z,84.70
2023-04-19T01:18:48.145Z,77.95
2023-04-19T01:21:15.891Z,79.28
2023-04-19T01:23:43.028Z,78.18
2023-04-19T01:26:10.294Z,77.57
2023-04-19T01:28:37.488Z,71.95
2023-04-19T01:31:04.960Z,80.38
2023-04-19T01:33:32.209Z,72.78
2023-04-19T01:35:59.356Z,72.53
2023-04-19T01:38:26.530Z,73.30
2023-04-19T01:40:53.689Z,73.60
2023-04-19T01:43:20.852Z,79.43
2023-04-19T01:45:48.002Z,67.28
2023-04-19T01:48:18.055Z,67.55
2023-04-19T01:50:45.172Z,64.10
2023-04-19T01:53:12.285Z,69.05
2023-04-19T01:55:39.440Z,65.28
2023-04-19T01:58:07.263Z,66.22
2023-04-19T02:00:34.427Z,59.80
2023-04-19T02:03:02.115Z,66.78
2023-04-19T02:05:29.425Z,61.92
2023-04-19T02:07:56.538Z,75.63
2023-04-19T02:10:23.800Z,63.40
2023-04-19T02:12:50.983Z,56.40
2023-04-19T02:15:18.113Z,54.85
2023-04-19T02:17:47.256Z,46.22
2023-04-19T02:20:14.482Z,47.58
2023-04-19T02:22:41.627Z,42.58
2023-04-19T02:25:09.048Z,45.78
2023-04-19T02:27:36.258Z,32.60
2023-04-19T02:30:03.426Z,28.58
2023-04-19T02:32:30.688Z,33.88
2023-04-19T02:34:57.859Z,32.97
2023-04-19T02:37:25.029Z,29.80
2023-04-19T02:39:52.206Z,26.92
2023-04-19T02:42:19.318Z,28.25
2023-04-19T02:44:46.483Z,24.98
2023-04-19T02:47:13.639Z,24.02
2023-04-19T02:49:41.580Z,21.58
2023-04-19T02:52:08.932Z,23.67
2023-04-19T02:54:36.059Z,18.83
2023-04-19T02:57:03.167Z,22.10
2023-04-19T02:59:30.623Z,20.45
2023-04-19T03:01:57.818Z,22.73
2023-04-19T03:04:25.661Z,24.92
2023-04-19T03:06:53.059Z,24.42
2023-04-19T03:09:20.409Z,19.35
2023-04-19T03:11:47.596Z,19.05
2023-04-19T03:14:15.000Z,21.10
2023-04-19T03:16:42.334Z,18.58
2023-04-19T03:19:09.526Z,19.48
2023-04-19T03:21:36.747Z,15.20
2023-04-19T03:24:03.965Z,15.80
2023-04-19T03:26:31.383Z,13.95
2023-04-19T03:28:58.562Z,14.63
2023-04-19T03:31:26.147Z,15.38
2023-04-19T03:33:53.717Z,15.27
2023-04-19T03:36:20.852Z,17.38
2023-04-19T03:38:47.990Z,15.18
2023-04-19T03:41:27.827Z,13.25
2023-04-19T03:43:54.968Z,10.77
2023-04-19T03:46:22.242Z,15.52
2023-04-19T03:48:49.359Z,12.05
2023-04-19T03:51:16.905Z,13.15
2023-04-19T03:53:44.133Z,11.80
2023-04-19T03:56:11.737Z,13.98
2023-04-19T03:58:40.532Z,12.05
2023-04-19T04:01:09.028Z,12.52
2023-04-19T04:03:36.358Z,12.75
2023-04-19T04:06:03.664Z,11.50
2023-04-19T04:08:30.780Z,15.15
2023-04-19T04:10:58.106Z,16.13
2023-04-19T04:13:25.256Z,14.88
2023-04-19T04:15:52.666Z,17.08
2023-04-19T04:18:19.864Z,13.23
2023-04-19T04:20:47.270Z,18.10
2023-04-19T04:23:14.522Z,15.25
2023-04-19T04:25:42.992Z,15.60
2023-04-19T04:28:10.196Z,14.00
2023-04-19T04:30:37.714Z,19.50
2023-04-19T04:33:04.900Z,13.68
2023-04-19T04:35:32.590Z,17.10
2023-04-19T04:37:59.938Z,17.48
2023-04-19T04:40:28.067Z,13.55
2023-04-19T04:42:55.321Z,15.80
2023-04-19T04:45:22.532Z,18.10
2023-04-19T04:47:49.720Z,21.58
2023-04-19T04:50:16.962Z,15.73
2023-04-19T04:52:44.164Z,18.17
2023-04-19T04:55:11.430Z,19.17
2023-04-19T04:57:38.558Z,17.08
2023-04-19T05:00:06.997Z,22.40
2023-04-19T05:02:34.279Z,18.58
2023-04-19T05:05:01.703Z,22.77
2023-04-19T05:07:32.071Z,20.70
2023-04-19T05:09:59.303Z,17.85
2023-04-19T05:12:26.401Z,20.65
2023-04-19T05:14:56.468Z,19.05
2023-04-19T05:17:23.741Z,22.80
2023-04-19T05:19:51.142Z,20.10
2023-04-19T05:22:18.378Z,21.42
2023-04-19T05:24:45.638Z,25.33
2023-04-19T05:27:12.832Z,23.85
2023-04-19T05:29:40.135Z,25.33
2023-04-19T05:32:08.035Z,27.67
2023-04-19T05:34:35.464Z,30.13
2023-04-19T05:37:03.325Z,33.47
2023-04-19T05:39:30.665Z,28.67
2023-04-19T05:41:57.851Z,28.88
2023-04-19T05:44:25.269Z,39.47
2023-04-19T05:46:52.447Z,28.35
2023-04-19T05:49:19.622Z,33.50
2023-04-19T05:51:46.831Z,29.60
2023-04-19T05:54:14.725Z,29.63
2023-04-19T05:56:42.115Z,33.63
2023-04-19T05:59:11.588Z,27.88
2023-04-19T06:01:38.854Z,26.98
2023-04-19T06:04:06.253Z,30.15
2023-04-19T06:06:33.581Z,30.90
2023-04-19T06:09:00.822Z,28.73
2023-04-19T06:11:38.461Z,24.20
2023-04-19T06:14:11.064Z,27.88
2023-04-19T06:16:38.273Z,26.65
2023-04-19T06:19:05.450Z,25.25
2023-04-19T06:21:32.990Z,22.55
2023-04-19T06:24:00.468Z,22.60
2023-04-19T06:26:27.708Z,27.17
2023-04-19T06:28:54.969Z,25.35
2023-04-19T06:31:22.516Z,25.33
2023-04-19T06:33:49.719Z,29.73
2023-04-19T06:36:16.861Z,47.90
2023-04-19T06:38:46.252Z,34.33
2023-04-19T06:41:13.600Z,37.17
2023-04-19T06:43:42.754Z,22.23
2023-04-19T06:46:12.588Z,33.15
2023-04-19T06:48:40.336Z,25.20
2023-04-19T06:51:07.584Z,25.48
2023-04-19T06:53:35.719Z,27.67
2023-04-19T06:56:07.114Z,20.45
2023-04-19T06:58:35.291Z,21.33
2023-04-19T07:01:04.169Z,19.70
2023-04-19T07:03:31.891Z,18.92
2023-04-19T07:05:59.198Z,23.33
2023-04-19T07:08:34.869Z,44.17
2023-04-19T07:11:02.438Z,118.43
2023-04-19T07:13:29.632Z,50.70
2023-04-19T07:15:56.804Z,54.47
2023-04-19T07:18:24.050Z,40.13
2023-04-19T07:20:51.510Z,20.35
2023-04-19T07:23:19.452Z,15.73
2023-04-19T07:25:46.595Z,12.68
2023-04-19T07:28:13.917Z,12.18
2023-04-19T07:30:41.250Z,15.02
2023-04-19T07:33:08.757Z,13.27
2023-04-19T07:35:35.972Z,14.00
2023-04-19T07:38:03.198Z,10.70
2023-04-19T07:40:30.560Z,40.05
2023-04-19T07:42:57.787Z,9.93
2023-04-19T07:45:24.921Z,8.50
2023-04-19T07:47:52.129Z,7.20
2023-04-19T07:50:20.424Z,9.35
2023-04-19T07:52:49.277Z,23.90
2023-04-19T07:55:16.389Z,12.45
2023-04-19T07:57:48.112Z,7.43
2023-04-19T08:00:15.897Z,19.70
2023-04-19T08:02:46.922Z,10.20
2023-04-19T08:05:17.092Z,17.55
2023-04-19T08:07:47.602Z,13.50
2023-04-19T08:10:15.080Z,19.17
2023-04-19T08:12:57.037Z,3.80
2023-04-19T08:16:13.168Z,11.63
2023-04-19T08:18:16.695Z,4.30
2023-04-19T08:20:43.973Z,3.30
2023-04-19T08:23:21.505Z,6.13
2023-04-19T08:25:51.520Z,4.10
2023-04-19T08:28:19.343Z,5.20
2023-04-19T08:30:47.001Z,10.98
2023-04-19T08:33:14.210Z,3.17
2023-04-19T08:35:41.987Z,2.53
2023-04-19T08:38:09.757Z,4.03
2023-04-19T08:40:42.348Z,4.95
2023-04-19T08:43:09.521Z,3.83
2023-04-19T08:45:37.029Z,3.97
2023-04-19T08:48:04.553Z,3.40
2023-04-19T08:50:38.840Z,4.32
2023-04-19T08:55:59.116Z,2.97
2023-04-19T08:58:46.483Z,8.00
2023-04-19T09:01:32.947Z,3.17
2023-04-19T09:04:17.029Z,3.03
2023-04-19T09:06:49.112Z,2.90
2023-04-19T09:11:50.829Z,3.25
2023-04-19T09:14:19.315Z,5.82
2023-04-19T09:16:46.910Z,2.75
2023-04-19T09:19:23.934Z,5.55
2023-04-19T09:21:54.403Z,3.33
2023-04-19T09:25:04.440Z,2.33
2023-04-19T09:27:35.637Z,3.45
2023-04-19T09:30:03.469Z,2.60
2023-04-19T09:32:45.803Z,2.03
2023-04-19T09:35:13.021Z,2.70
2023-04-19T09:38:04.048Z,2.03
2023-04-19T09:40:29.022Z,3.65
2023-04-19T09:45:30.911Z,2.45
2023-04-19T09:48:07.450Z,3.53
2023-04-19T09:50:46.868Z,7.35
2023-04-19T09:53:23.534Z,2.33
2023-04-19T09:56:00.593Z,2.25
2023-04-19T09:58:34.369Z,4.20
2023-04-19T10:01:15.844Z,4.05
2023-04-19T10:03:46.476Z,5.70
2023-04-19T10:08:48.510Z,3.55
2023-04-19T10:11:16.060Z,4.22
2023-04-19T10:13:44.274Z,2.15
2023-04-19T10:16:18.817Z,1.40
2023-04-19T10:18:47.090Z,3.70
2023-04-19T10:21:14.774Z,7.75
2023-04-19T10:23:42.289Z,4.28
2023-04-19T10:26:09.492Z,2.25
2023-04-19T10:28:38.056Z,3.28
2023-04-19T10:31:05.879Z,2.47
2023-04-19T10:33:37.712Z,4.97
2023-04-19T10:36:05.532Z,2.38
2023-04-19T10:38:55.598Z,2.25
2023-04-19T10:41:23.229Z,3.60
2023-04-19T10:43:57.650Z,2.85
2023-04-19T10:46:26.228Z,4.20
2023-04-19T10:49:03.652Z,3.05
2023-04-19T10:51:35.663Z,2.97
2023-04-19T10:54:03.828Z,2.25
2023-04-19T10:56:34.227Z,1.60
2023-04-19T10:59:01.625Z,2.67
2023-04-19T11:01:39.763Z,3.60
2023-04-19T11:04:07.975Z,3.63
2023-04-19T11:06:36.078Z,1.63
2023-04-19T11:09:05.654Z,7.25
2023-04-19T11:11:36.120Z,2.60
2023-04-19T11:14:04.370Z,2.20
2023-04-19T11:16:45.153Z,11.48
2023-04-19T11:19:17.389Z,3.17
2023-04-19T11:21:49.110Z,2.83
2023-04-19T11:24:18.825Z,6.80
2023-04-19T11:26:46.461Z,4.55
2023-04-19T11:29:14.106Z,3.17
2023-04-19T11:31:41.784Z,3.97
2023-04-19T11:34:09.350Z,2.30
2023-04-19T11:36:47.791Z,3.33
2023-04-19T11:39:14.964Z,2.00
2023-04-19T11:41:42.228Z,4.78
2023-04-19T11:44:22.465Z,2.42
2023-04-19T11:47:00.119Z,3.00
2023-04-19T11:49:28.962Z,5.75
2023-04-19T11:52:00.569Z,3.70
2023-04-19T11:54:28.483Z,19.13
2023-04-19T11:57:02.623Z,11.50
2023-04-19T11:59:30.487Z,17.67
2023-04-19T12:01:58.266Z,6.00
2023-04-19T12:04:25.660Z,8.73
2023-04-19T12:06:59.824Z,2.05
2023-04-19T12:09:27.259Z,9.32
2023-04-19T12:11:54.461Z,3.42
2023-04-19T12:14:23.099Z,2.17
2023-04-19T12:17:09.920Z,5.55
2023-04-19T12:19:37.808Z,17.25
2023-04-19T12:22:12.481Z,33.47
2023-04-19T12:24:40.378Z,7.90
2023-04-19T12:27:07.898Z,5.22
2023-04-19T12:29:35.437Z,5.13
2023-04-19T12:32:03.475Z,5.30
2023-04-19T12:34:30.754Z,7.18
2023-04-19T12:36:58.246Z,7.15
2023-04-19T12:39:25.539Z,4.28
2023-04-19T12:41:52.767Z,2.33
2023-04-19T12:44:19.965Z,5.75
2023-04-19T12:46:47.162Z,3.28
2023-04-19T12:49:14.482Z,3.03
2023-04-19T12:51:42.798Z,2.88
2023-04-19T12:54:12.070Z,6.97
2023-04-19T12:56:39.297Z,5.65
2023-04-19T12:59:06.513Z,3.92
2023-04-19T13:01:33.964Z,2.45
2023-04-19T13:04:01.415Z,1.95
2023-04-19T13:06:28.766Z,10.25
2023-04-19T13:09:00.471Z,11.93
2023-04-19T13:11:28.615Z,8.13
2023-04-19T13:13:55.811Z,4.22
2023-04-19T13:16:23.242Z,9.65
2023-04-19T13:18:52.353Z,7.00
2023-04-19T13:21:19.884Z,2.17
2023-04-19T13:23:47.000Z,4.68
2023-04-19T13:26:14.166Z,2.25
2023-04-19T13:28:42.928Z,7.20
2023-04-19T13:31:10.166Z,3.78
2023-04-19T13:33:37.548Z,3.65
2023-04-19T13:36:04.941Z,6.50
2023-04-19T13:38:32.150Z,4.25
2023-04-19T13:40:59.842Z,3.38
2023-04-19T13:43:27.122Z,4.45
2023-04-19T13:45:54.595Z,5.82
2023-04-19T13:48:22.318Z,5.03
2023-04-19T13:50:51.217Z,10.38
2023-04-19T13:53:18.441Z,5.40
2023-04-19T13:55:45.730Z,3.22
2023-04-19T13:58:13.054Z,2.78
2023-04-19T14:00:40.258Z,4.32
2023-04-19T14:03:07.712Z,3.08
2023-04-19T14:05:35.013Z,4.80
2023-04-19T14:08:02.216Z,2.90
2023-04-19T14:10:29.549Z,6.30
2023-04-19T14:12:56.761Z,11.23
2023-04-19T14:15:25.552Z,3.05
2023-04-19T14:17:53.114Z,8.23
2023-04-19T14:20:20.296Z,7.78
2023-04-19T14:22:47.684Z,3.67
2023-04-19T14:25:21.029Z,5.00
2023-04-19T14:27:48.143Z,4.10
2023-04-19T14:30:15.303Z,2.80
2023-04-19T14:32:42.682Z,6.55
2023-04-19T14:35:11.347Z,8.50
2023-04-19T14:37:38.690Z,2.88
2023-04-19T14:40:06.213Z,3.45
2023-04-19T14:42:33.467Z,15.80
2023-04-19T14:45:00.662Z,5.70
2023-04-19T14:47:27.924Z,3.88
2023-04-19T14:49:55.288Z,9.15
2023-04-19T14:52:22.509Z,3.85
2023-04-19T14:54:49.693Z,6.20
2023-04-19T14:57:17.142Z,2.70
2023-04-19T14:59:44.403Z,5.40
2023-04-19T15:02:13.347Z,4.97
2023-04-19T15:04:41.684Z,3.20
2023-04-19T15:07:09.317Z,6.03
2023-04-19T15:09:36.524Z,4.15
2023-04-19T15:12:03.801Z,5.70
2023-04-19T15:14:31.225Z,13.23
2023-04-19T15:16:58.464Z,13.68
2023-04-19T15:19:25.755Z,3.38
2023-04-19T15:21:53.018Z,6.03
2023-04-19T15:24:20.399Z,5.57
2023-04-19T15:26:47.706Z,3.92
2023-04-19T15:29:15.183Z,4.00
2023-04-19T15:31:42.969Z,5.93
2023-04-19T15:34:10.216Z,14.68
2023-04-19T15:36:37.371Z,5.60
2023-04-19T15:39:04.559Z,4.50
2023-04-19T15:41:31.722Z,7.93
2023-04-19T15:43:58.955Z,7.63
2023-04-19T15:46:26.263Z,6.30
2023-04-19T15:48:53.587Z,4.28
2023-04-19T15:51:20.921Z,4.55
2023-04-19T15:53:48.113Z,5.82
2023-04-19T15:56:15.372Z,6.40
2023-04-19T15:58:42.496Z,5.65
2023-04-19T16:01:13.279Z,7.32
2023-04-19T16:03:41.464Z,8.57
2023-04-19T16:06:08.909Z,6.15
2023-04-19T16:08:36.089Z,5.72
2023-04-19T16:11:03.518Z,7.13
2023-04-19T16:13:31.538Z,10.18
2023-04-19T16:15:58.945Z,9.50
2023-04-19T16:18:26.164Z,11.25
2023-04-19T16:20:54.090Z,9.05
2023-04-19T16:23:21.550Z,8.15
2023-04-19T16:25:48.779Z,7.18
2023-04-19T16:28:16.128Z,7.65
2023-04-19T16:30:43.775Z,11.73
2023-04-19T16:33:11.467Z,5.88
2023-04-19T16:35:39.876Z,7.70
2023-04-19T16:38:07.109Z,6.78
2023-04-19T16:40:34.320Z,6.30
2023-04-19T16:43:01.929Z,7.35
2023-04-19T16:45:29.166Z,7.78
2023-04-19T16:47:57.965Z,8.90
2023-04-19T16:50:25.234Z,9.65
2023-04-19T16:52:52.479Z,7.68
2023-04-19T16:55:20.923Z,7.88
2023-04-19T16:57:48.701Z,7.45
2023-04-19T17:00:16.051Z,9.75
2023-04-19T17:02:43.279Z,7.13
2023-04-19T17:05:12.673Z,7.75
2023-04-19T17:07:40.039Z,8.82
2023-04-19T17:10:07.499Z,7.55
2023-04-19T17:12:34.738Z,7.97
2023-04-19T17:15:01.985Z,8.00
2023-04-19T17:17:29.157Z,9.63
2023-04-19T17:19:56.926Z,7.50
2023-04-19T17:22:24.339Z,4.00
2023-04-19T17:24:51.681Z,5.40
2023-04-19T17:27:18.949Z,31.27
2023-04-19T17:29:46.348Z,8.18
2023-04-19T17:32:13.529Z,5.18
2023-04-19T17:34:40.686Z,5.45
2023-04-19T17:37:07.852Z,5.35
2023-04-19T17:39:35.056Z,6.65
2023-04-19T17:42:02.262Z,5.03
2023-04-19T17:44:29.393Z,7.63
2023-04-19T17:46:56.727Z,10.48
2023-04-19T17:49:24.925Z,5.65
2023-04-19T17:51:53.181Z,7.03
2023-04-19T17:54:20.792Z,5.78
2023-04-19T17:56:48.025Z,5.18
2023-04-19T17:59:15.259Z,8.57
2023-04-19T18:01:42.643Z,6.30
2023-04-19T18:04:11.754Z,5.35
2023-04-19T18:06:39.088Z,5.43
2023-04-19T18:09:07.678Z,8.73
2023-04-19T18:11:34.859Z,6.40
2023-04-19T18:14:02.008Z,5.70
2023-04-19T18:16:29.195Z,10.38
2023-04-19T18:18:56.382Z,7.45
2023-04-19T18:21:23.499Z,7.95
2023-04-19T18:23:52.429Z,8.10
2023-04-19T18:26:19.585Z,11.10
2023-04-19T18:28:46.716Z,13.38
2023-04-19T18:31:16.593Z,7.20
2023-04-19T18:33:43.727Z,8.38
2023-04-19T18:36:11.184Z,10.10
2023-04-19T18:38:38.526Z,8.77
2023-04-19T18:41:05.696Z,7.47
2023-04-19T18:43:34.990Z,8.48
2023-04-19T18:46:02.242Z,7.10
2023-04-19T18:48:30.032Z,6.90
2023-04-19T18:50:57.458Z,10.48
2023-04-19T18:53:26.279Z,7.88
2023-04-19T18:55:57.614Z,10.13
2023-04-19T18:58:27.466Z,10.45
2023-04-19T19:00:55.718Z,8.90
2023-04-19T19:03:43.888Z,7.28
2023-04-19T19:06:11.623Z,6.05
2023-04-19T19:08:39.415Z,9.98
2023-04-19T19:11:36.067Z,9.82
2023-04-19T19:13:54.558Z,7.82
2023-04-19T19:16:21.918Z,9.35
2023-04-19T19:18:49.246Z,13.27
2023-04-19T19:21:16.554Z,6.35
2023-04-19T19:23:43.807Z,11.50
2023-04-19T19:26:12.933Z,13.50
2023-04-19T19:28:40.534Z,12.20
2023-04-19T19:31:07.835Z,11.15
2023-04-19T19:33:35.118Z,12.90
2023-04-19T19:36:02.249Z,16.45
2023-04-19T19:38:45.750Z,11.38
2023-04-19T19:43:43.012Z,15.90
2023-04-19T19:46:10.967Z,13.00
2023-04-19T19:48:42.318Z,11.00
2023-04-19T19:51:36.440Z,12.23
2023-04-19T19:53:57.457Z,10.90
2023-04-19T19:56:24.971Z,11.95
2023-04-19T19:58:52.439Z,12.90
2023-04-19T20:01:22.554Z,13.05
2023-04-19T20:03:50.545Z,16.27
2023-04-19T20:07:13.577Z,14.00
2023-04-19T20:09:07.864Z,9.90
2023-04-19T20:11:35.079Z,10.00
2023-04-19T20:14:02.236Z,11.80
2023-04-19T20:16:29.574Z,12.40
2023-04-19T20:18:57.897Z,9.45
2023-04-19T20:21:25.080Z,10.57
2023-04-19T20:23:53.997Z,10.60
2023-04-19T20:26:21.219Z,10.43
2023-04-19T20:28:49.480Z,11.10
2023-04-19T20:31:16.673Z,13.13
2023-04-19T20:33:45.754Z,10.68
2023-04-19T20:36:14.049Z,12.20
2023-04-19T20:38:41.329Z,8.02
2023-04-19T20:41:08.720Z,9.73
2023-04-19T20:43:36.430Z,7.53
2023-04-19T20:46:03.679Z,10.13
2023-04-19T20:48:30.938Z,12.82
2023-04-19T20:50:58.342Z,13.70
2023-04-19T20:53:25.597Z,11.80
2023-04-19T20:55:52.951Z,10.23
2023-04-19T20:58:20.301Z,10.77
2023-04-19T21:00:47.606Z,14.40
2023-04-19T21:03:14.880Z,21.55
2023-04-19T21:05:42.244Z,15.18
2023-04-19T21:08:09.588Z,11.18
2023-04-19T21:10:36.704Z,14.45
2023-04-19T21:13:03.876Z,6.97
2023-04-19T21:15:31.149Z,8.63
2023-04-19T21:17:58.392Z,6.63
2023-04-19T21:20:25.578Z,8.82
2023-04-19T21:22:54.825Z,9.88
2023-04-19T21:25:22.090Z,12.10
2023-04-19T21:27:49.258Z,8.90
2023-04-19T21:30:16.443Z,11.82
2023-04-19T21:32:43.708Z,9.18
2023-04-19T21:35:10.937Z,10.30
2023-04-19T21:37:38.151Z,15.32
2023-04-19T21:40:05.766Z,9.55
2023-04-19T21:42:32.950Z,8.23
2023-04-19T21:45:00.218Z,8.05
2023-04-19T21:47:27.709Z,9.60
2023-04-19T21:49:55.209Z,10.40
2023-04-19T21:52:22.452Z,8.13
2023-04-19T21:54:49.749Z,14.35
2023-04-19T21:57:21.856Z,8.38
2023-04-19T21:59:49.067Z,8.15
2023-04-19T22:02:16.444Z,7.53
2023-04-19T22:04:44.755Z,5.97
2023-04-19T22:07:18.968Z,6.20
2023-04-19T22:09:46.517Z,5.40
2023-04-19T22:12:13.965Z,4.95
2023-04-19T22:14:41.158Z,5.07
2023-04-19T22:17:09.152Z,8.80
2023-04-19T22:19:36.713Z,4.50
2023-04-19T22:22:04.072Z,3.90
2023-04-19T22:24:31.218Z,4.50
2023-04-19T22:26:58.829Z,3.67
2023-04-19T22:29:26.123Z,3.30
2023-04-19T22:31:53.453Z,3.53
2023-04-19T22:34:20.738Z,3.60
2023-04-19T22:36:47.877Z,3.75
2023-04-19T22:39:16.044Z,4.20
2023-04-19T22:41:43.349Z,3.88
2023-04-19T22:44:10.724Z,3.55
2023-04-19T22:46:37.994Z,3.42
2023-04-19T22:49:05.362Z,3.67
2023-04-19T22:51:32.577Z,3.53
2023-04-19T22:53:59.823Z,3.67
2023-04-19T22:56:26.991Z,3.55
2023-04-19T22:58:54.248Z,8.48
2023-04-19T23:01:21.450Z,3.70
2023-04-19T23:03:48.692Z,3.90
2023-04-19T23:06:18.112Z,4.65
2023-04-19T23:08:45.472Z,4.40
2023-04-19T23:11:13.707Z,4.07
2023-04-19T23:13:44.004Z,4.85
2023-04-19T23:16:11.906Z,4.90
2023-04-19T23:18:40.194Z,4.65
2023-04-19T23:21:07.569Z,4.50
2023-04-19T23:23:34.839Z,4.35
2023-04-19T23:26:02.098Z,4.05
2023-04-19T23:28:29.360Z,4.88
2023-04-19T23:30:56.539Z,4.65
2023-04-19T23:33:23.783Z,5.07
2023-04-19T23:35:51.523Z,4.82
2023-04-19T23:38:19.258Z,4.32
2023-04-19T23:40:46.495Z,4.70
2023-04-19T23:43:13.707Z,5.38
2023-04-19T23:45:40.863Z,5.15
2023-04-19T23:48:08.180Z,5.10
2023-04-19T23:50:35.329Z,5.03
2023-04-19T23:53:04.442Z,5.90
2023-04-19T23:55:31.741Z,5.85
2023-04-19T23:58:01.115Z,5.90
